Decoded Metar for CYNE (NORWAY HOUSE ARP in MB, CANADA) (IATA:YNE) | Meteo·Mobile Aviation Weather
aviador You're here:

CYNE Decoded Metar

NORWAY HOUSE ARP in MB, CANADA
Report Time2018-10-18 08:00:00
UTC Time2018-10-18 08:54:51
Flight Rules vfr VFR
Wind210° at 04 kt
W.Decomp.*RWY 24: 3.3 kt HW 2.3 kt LCW
W.Rank210° ranks 1
Current wind is below 210° avg. (7.7)
Visibility9999 m
Phenomena:N/A
Clouds:N/A
CeilingNone
Temp01°C (ISA -13)
Dew Point01°C (100% RH)
AAT-2.3°C
QNH1007 hPa
Density Alt-499 ft
Elevation732 ft
Report Wrong Elevation
Raw Report
CYNE 180800Z AUTO 21004KT 9SM CLR 01/01 A2973 RMK SLP082=

Extra information for CYNE:More info

Metar Taf Metar & Taf Last 4 Metars F.Rules Stats Wind Profile Meteogram Temp Stats Airport Information Weather charts Add Link Nearby VenuesMetar ALERT Operation Metar Decoded Social comments